createdAt,value
2019-05-06T00:00:09.415Z,5.73
2019-05-06T00:02:37.776Z,6.23
2019-05-06T00:05:06.150Z,6.95
2019-05-06T00:07:34.488Z,6.00
2019-05-06T00:10:02.845Z,6.37
2019-05-06T00:15:05.425Z,6.93
2019-05-06T00:17:34.888Z,6.93
2019-05-06T00:20:04.278Z,6.50
2019-05-06T00:22:30.501Z,6.07
2019-05-06T00:27:37.407Z,7.93
2019-05-06T00:30:05.778Z,6.20
2019-05-06T00:32:34.843Z,6.43
2019-05-06T00:35:04.460Z,6.30
2019-05-06T00:37:30.830Z,6.43
2019-05-06T00:40:01.641Z,6.20
2019-05-06T00:42:29.978Z,5.87
2019-05-06T00:44:58.321Z,6.00
2019-05-06T00:47:26.727Z,7.72
2019-05-06T00:49:55.074Z,7.60
2019-05-06T00:52:25.986Z,7.82
2019-05-06T00:54:54.738Z,6.33
2019-05-06T00:59:59.354Z,7.45
2019-05-06T01:02:27.731Z,6.60
2019-05-06T01:04:56.120Z,5.10
2019-05-06T01:07:24.463Z,5.90
2019-05-06T01:09:54.144Z,5.47
2019-05-06T01:12:21.109Z,4.97
2019-05-06T01:14:49.447Z,4.80
2019-05-06T01:17:17.830Z,6.03
2019-05-06T01:19:46.164Z,4.90
2019-05-06T01:22:14.505Z,5.73
2019-05-06T01:24:43.941Z,5.40
2019-05-06T01:27:11.214Z,6.18
2019-05-06T01:29:39.584Z,5.13
2019-05-06T01:32:07.939Z,5.70
2019-05-06T01:34:36.265Z,5.50
2019-05-06T01:37:05.600Z,4.77
2019-05-06T01:39:35.263Z,5.77
2019-05-06T01:42:09.097Z,5.53
2019-05-06T01:44:37.412Z,5.50
2019-05-06T01:49:41.454Z,5.90
2019-05-06T01:52:10.040Z,6.17
2019-05-06T01:54:38.382Z,6.10
2019-05-06T01:57:06.736Z,5.50
2019-05-06T02:02:14.145Z,7.50
2019-05-06T02:04:41.638Z,6.77
2019-05-06T02:07:09.989Z,6.20
2019-05-06T02:14:46.859Z,7.70
2019-05-06T02:17:15.311Z,6.20
2019-05-06T02:19:43.936Z,6.10
2019-05-06T02:22:13.655Z,6.20
2019-05-06T02:24:44.012Z,6.90
2019-05-06T02:27:13.923Z,6.13
2019-05-06T02:32:21.065Z,6.90
2019-05-06T02:34:46.272Z,5.97
2019-05-06T02:37:14.808Z,7.07
2019-05-06T02:39:43.779Z,6.80
2019-05-06T02:42:13.054Z,8.70
2019-05-06T02:44:39.399Z,8.30
2019-05-06T02:47:13.750Z,7.33
2019-05-06T02:49:44.241Z,7.67
2019-05-06T02:52:10.057Z,6.63
2019-05-06T02:54:38.391Z,6.30
2019-05-06T02:57:06.735Z,6.82
2019-05-06T02:59:35.078Z,6.10
2019-05-06T03:02:03.731Z,6.87
2019-05-06T03:04:33.254Z,7.00
2019-05-06T03:07:03.435Z,5.70
2019-05-06T03:09:28.400Z,6.30
2019-05-06T03:11:56.755Z,6.60
2019-05-06T03:14:25.099Z,6.53
2019-05-06T03:19:27.710Z,6.40
2019-05-06T03:22:03.417Z,7.03
2019-05-06T03:24:32.960Z,8.27
2019-05-06T03:26:58.703Z,6.90
2019-05-06T03:29:27.027Z,6.13
2019-05-06T03:34:52.784Z,7.35
2019-05-06T03:36:57.999Z,6.97
2019-05-06T03:39:26.350Z,7.47
2019-05-06T03:41:54.675Z,6.50
2019-05-06T03:44:23.877Z,6.60
2019-05-06T03:46:58.661Z,7.93
2019-05-06T03:49:27.888Z,7.07
2019-05-06T03:51:56.613Z,6.43
2019-05-06T03:54:24.608Z,7.03
2019-05-06T03:56:53.778Z,7.30
2019-05-06T03:59:23.308Z,5.37
2019-05-06T04:01:49.760Z,7.20
2019-05-06T04:04:18.149Z,6.10
2019-05-06T04:06:46.473Z,6.20
2019-05-06T04:09:14.856Z,6.63
2019-05-06T04:11:43.398Z,5.97
2019-05-06T04:14:14.002Z,6.13
2019-05-06T04:16:44.323Z,5.73
2019-05-06T04:19:13.008Z,6.53
2019-05-06T04:21:43.607Z,5.70
2019-05-06T04:24:14.551Z,6.68
2019-05-06T04:27:03.253Z,6.40
2019-05-06T04:29:35.220Z,6.30
2019-05-06T04:31:59.195Z,6.37
2019-05-06T04:34:27.530Z,6.20
2019-05-06T04:36:55.854Z,5.73
2019-05-06T04:39:24.246Z,5.40
2019-05-06T04:41:53.949Z,5.80
2019-05-06T04:44:23.716Z,6.40
2019-05-06T04:46:50.263Z,6.33
2019-05-06T04:49:18.634Z,6.07
2019-05-06T04:51:46.969Z,5.07
2019-05-06T04:54:15.317Z,5.67
2019-05-06T04:56:44.027Z,5.77
2019-05-06T04:59:13.894Z,6.13
2019-05-06T05:01:40.366Z,6.40
2019-05-06T05:04:22.846Z,5.30
2019-05-06T05:06:37.072Z,6.03
2019-05-06T05:09:06.443Z,5.10
2019-05-06T05:11:35.777Z,5.43
2019-05-06T05:17:02.085Z,4.80
2019-05-06T05:19:28.478Z,5.53
2019-05-06T05:21:56.842Z,5.00
2019-05-06T05:24:25.205Z,5.30
2019-05-06T05:26:54.480Z,4.03
2019-05-06T05:29:23.799Z,5.10
2019-05-06T05:31:53.034Z,4.37
2019-05-06T05:34:22.446Z,4.60
2019-05-06T05:39:23.057Z,5.40
2019-05-06T05:41:52.377Z,5.77
2019-05-06T05:44:22.653Z,4.40
2019-05-06T05:46:49.108Z,4.45
2019-05-06T05:49:20.148Z,5.20
2019-05-06T05:51:47.140Z,4.80
2019-05-06T05:54:15.480Z,5.40
2019-05-06T05:56:43.847Z,4.73
2019-05-06T05:59:12.351Z,4.03
2019-05-06T06:04:14.717Z,4.68
2019-05-06T06:06:44.094Z,5.20
2019-05-06T06:09:12.802Z,4.67
2019-05-06T06:11:43.822Z,4.60
2019-05-06T06:14:17.638Z,3.90
2019-05-06T06:16:52.739Z,4.13
2019-05-06T06:19:22.137Z,5.07
2019-05-06T06:21:48.868Z,3.90
2019-05-06T06:24:18.975Z,4.07
2019-05-06T06:26:48.277Z,4.40
2019-05-06T06:29:16.636Z,5.07
2019-05-06T06:31:45.034Z,4.30
2019-05-06T06:34:23.277Z,4.47
2019-05-06T06:39:32.523Z,4.78
2019-05-06T06:41:58.537Z,4.03
2019-05-06T06:44:27.169Z,4.37
2019-05-06T06:46:55.613Z,3.63
2019-05-06T06:51:58.150Z,4.05
2019-05-06T06:54:26.488Z,4.50
2019-05-06T06:57:08.377Z,4.60
2019-05-06T06:59:27.860Z,3.90
2019-05-06T07:02:12.089Z,4.13
2019-05-06T07:04:42.988Z,3.37
2019-05-06T07:07:12.779Z,3.83
2019-05-06T07:09:38.653Z,4.10
2019-05-06T07:12:07.118Z,3.97
2019-05-06T07:19:47.795Z,3.95
2019-05-06T07:22:16.159Z,3.65
2019-05-06T07:24:45.431Z,3.17
2019-05-06T07:27:13.773Z,3.30
2019-05-06T07:29:48.126Z,3.43
2019-05-06T07:32:12.260Z,4.10
2019-05-06T07:34:38.823Z,3.40
2019-05-06T07:39:43.077Z,3.20
2019-05-06T07:42:09.757Z,3.70
2019-05-06T07:47:36.918Z,3.08
2019-05-06T07:50:05.278Z,2.67
2019-05-06T07:52:33.743Z,3.03
2019-05-06T07:55:03.131Z,2.97
2019-05-06T07:57:33.052Z,2.33
2019-05-06T07:59:59.793Z,2.87
2019-05-06T08:02:28.125Z,3.77
2019-05-06T08:04:56.453Z,3.33
2019-05-06T08:07:25.760Z,2.67
2019-05-06T08:09:54.105Z,3.10
2019-05-06T08:12:22.562Z,2.20
2019-05-06T08:14:52.367Z,3.63
2019-05-06T08:17:22.255Z,2.93
2019-05-06T08:19:49.901Z,2.40
2019-05-06T08:22:22.719Z,2.33
2019-05-06T08:24:50.344Z,2.40
2019-05-06T08:29:52.944Z,1.70
2019-05-06T08:32:22.766Z,1.87
2019-05-06T08:34:52.390Z,2.40
2019-05-06T08:37:18.987Z,2.30
2019-05-06T08:39:47.402Z,2.90
2019-05-06T08:44:53.172Z,2.00
2019-05-06T08:47:22.373Z,2.10
2019-05-06T08:52:23.924Z,2.10
2019-05-06T08:54:52.652Z,2.22
2019-05-06T08:57:22.736Z,2.00
2019-05-06T08:59:49.130Z,2.30
2019-05-06T09:02:17.728Z,2.50
2019-05-06T09:04:46.073Z,2.10
2019-05-06T09:09:48.619Z,1.73
2019-05-06T09:12:17.081Z,1.70
2019-05-06T09:14:45.428Z,2.03
2019-05-06T09:17:13.817Z,2.10
2019-05-06T09:19:42.676Z,1.90
2019-05-06T09:22:12.796Z,1.93
2019-05-06T09:24:39.148Z,2.27
2019-05-06T09:27:09.686Z,1.40
2019-05-06T09:29:38.873Z,2.00
2019-05-06T09:32:07.257Z,2.10
2019-05-06T09:34:43.063Z,1.80
2019-05-06T09:37:13.349Z,1.90
2019-05-06T09:39:39.722Z,1.93
2019-05-06T09:42:08.071Z,2.40
2019-05-06T09:44:36.481Z,2.10
2019-05-06T09:47:04.850Z,1.90
2019-05-06T09:49:33.198Z,2.20
2019-05-06T09:52:02.513Z,2.30
2019-05-06T09:54:32.203Z,2.60
2019-05-06T09:57:02.392Z,3.03
2019-05-06T09:59:29.327Z,2.70
2019-05-06T10:04:35.030Z,1.95
2019-05-06T10:07:03.619Z,1.93
2019-05-06T10:09:32.621Z,2.30
2019-05-06T10:14:34.714Z,2.60
2019-05-06T10:17:04.372Z,2.77
2019-05-06T10:19:32.118Z,3.23
2019-05-06T10:24:34.250Z,2.60
2019-05-06T10:27:02.706Z,2.50
2019-05-06T10:29:34.342Z,2.47
2019-05-06T10:34:38.952Z,2.47
2019-05-06T10:47:24.196Z,2.77
2019-05-06T10:49:53.033Z,2.62
2019-05-06T10:52:21.896Z,2.35
2019-05-06T10:54:50.790Z,3.08
2019-05-06T10:59:56.378Z,2.60
2019-05-06T11:05:18.128Z,2.50
2019-05-06T11:07:46.506Z,2.60
2019-05-06T11:10:23.773Z,2.80
2019-05-06T11:15:23.254Z,2.45
2019-05-06T11:17:49.508Z,2.75
2019-05-06T11:25:29.568Z,2.30
2019-05-06T11:27:57.890Z,2.80
2019-05-06T11:30:33.144Z,2.77
2019-05-06T11:33:04.772Z,3.07
2019-05-06T11:38:24.959Z,2.70
2019-05-06T11:40:53.408Z,2.42
2019-05-06T11:43:22.775Z,2.73
2019-05-06T11:48:26.092Z,3.12
2019-05-06T11:50:54.440Z,2.80
2019-05-06T11:53:23.267Z,3.60
2019-05-06T11:55:54.422Z,2.80
2019-05-06T11:58:24.989Z,2.67
2019-05-06T12:00:53.358Z,3.03
2019-05-06T12:03:23.313Z,3.50
2019-05-06T12:05:50.073Z,2.77
2019-05-06T12:08:19.413Z,3.27
2019-05-06T12:10:47.783Z,3.80
2019-05-06T12:13:16.125Z,2.93
2019-05-06T12:15:44.520Z,3.13
2019-05-06T12:18:12.882Z,3.20
2019-05-06T12:20:42.585Z,2.92
2019-05-06T12:23:09.569Z,3.13
2019-05-06T12:25:37.988Z,3.57
2019-05-06T12:28:06.318Z,3.20
2019-05-06T12:30:34.794Z,3.77
2019-05-06T12:35:56.464Z,3.00
2019-05-06T12:38:30.933Z,2.73
2019-05-06T12:40:59.903Z,3.30
2019-05-06T12:43:43.081Z,2.83
2019-05-06T12:46:15.880Z,3.00
2019-05-06T12:48:44.421Z,3.10
2019-05-06T12:53:47.954Z,3.28
2019-05-06T12:56:16.338Z,2.80
2019-05-06T12:58:44.685Z,2.80
2019-05-06T13:01:13.843Z,3.17
2019-05-06T13:06:25.965Z,2.70
2019-05-06T13:08:58.898Z,3.47
2019-05-06T13:11:19.405Z,2.60
2019-05-06T13:13:59.864Z,3.20
2019-05-06T13:16:16.077Z,2.90
2019-05-06T13:21:18.642Z,3.50
2019-05-06T13:23:47.019Z,3.00
2019-05-06T13:26:15.446Z,3.03
2019-05-06T13:28:43.810Z,3.00
2019-05-06T13:33:46.842Z,3.20
2019-05-06T13:38:49.264Z,3.00
2019-05-06T13:41:17.637Z,3.50
2019-05-06T13:43:53.942Z,2.43
2019-05-06T13:46:19.642Z,3.10
2019-05-06T13:51:52.375Z,2.78
2019-05-06T13:56:54.475Z,2.70
2019-05-06T13:59:22.890Z,3.20
2019-05-06T14:04:25.384Z,2.90
2019-05-06T14:06:53.743Z,2.90
2019-05-06T14:09:29.522Z,2.67
2019-05-06T14:11:52.517Z,2.70
2019-05-06T14:14:19.796Z,3.10
2019-05-06T14:19:22.656Z,2.43
2019-05-06T14:21:52.296Z,2.80
2019-05-06T14:24:19.331Z,2.87
2019-05-06T14:26:49.496Z,2.80
2019-05-06T14:29:18.193Z,2.53
2019-05-06T14:31:52.525Z,2.87
2019-05-06T14:34:19.808Z,3.20
2019-05-06T14:39:23.872Z,2.60
2019-05-06T14:41:53.521Z,3.53
2019-05-06T14:44:23.264Z,3.03
2019-05-06T14:46:54.951Z,2.67
2019-05-06T14:49:25.328Z,2.60
2019-05-06T14:51:53.839Z,2.50
2019-05-06T14:54:22.226Z,2.80
2019-05-06T14:56:50.502Z,2.80
2019-05-06T14:59:18.954Z,2.97
2019-05-06T15:04:22.996Z,2.60
2019-05-06T15:09:29.625Z,2.90
2019-05-06T15:11:57.967Z,2.30
2019-05-06T15:17:02.196Z,2.70
2019-05-06T15:19:29.857Z,2.80
2019-05-06T15:21:59.125Z,2.67
2019-05-06T15:27:04.790Z,2.67
2019-05-06T15:32:09.662Z,2.47
2019-05-06T15:37:27.066Z,2.45
2019-05-06T15:39:55.399Z,2.90
2019-05-06T15:42:23.779Z,2.80
2019-05-06T15:47:26.354Z,2.47
2019-05-06T15:49:54.770Z,2.80
2019-05-06T15:52:23.652Z,3.00
2019-05-06T15:54:52.458Z,2.70
2019-05-06T15:57:20.005Z,2.80
2019-05-06T15:59:48.921Z,2.43
2019-05-06T16:02:17.430Z,2.43
2019-05-06T16:04:45.773Z,2.70
2019-05-06T16:07:14.115Z,2.83
2019-05-06T16:12:17.699Z,3.07
2019-05-06T16:14:46.068Z,3.60
2019-05-06T16:17:15.140Z,3.92
2019-05-06T16:19:47.182Z,3.40
2019-05-06T16:22:15.482Z,3.30
2019-05-06T16:24:46.760Z,4.03
2019-05-06T16:27:15.141Z,3.50
2019-05-06T16:29:43.478Z,3.20
2019-05-06T16:34:48.123Z,3.70
2019-05-06T16:37:16.520Z,3.47
2019-05-06T16:42:19.115Z,3.97
2019-05-06T16:44:47.450Z,3.90
2019-05-06T16:47:15.808Z,4.43
2019-05-06T16:49:48.517Z,3.97
2019-05-06T16:52:16.853Z,3.60
2019-05-06T16:57:19.459Z,4.30
2019-05-06T17:02:26.632Z,3.80
2019-05-06T17:07:46.844Z,4.50
2019-05-06T17:10:15.178Z,3.90
2019-05-06T17:12:44.530Z,5.70
2019-05-06T17:15:12.870Z,5.03
2019-05-06T17:17:46.618Z,5.80
2019-05-06T17:20:12.163Z,5.80
2019-05-06T17:22:38.950Z,6.77
2019-05-06T17:25:07.280Z,5.83
2019-05-06T17:27:35.612Z,6.57
2019-05-06T17:30:05.818Z,5.53
2019-05-06T17:32:34.171Z,5.90
2019-05-06T17:35:02.841Z,6.40
2019-05-06T17:37:37.179Z,6.10
2019-05-06T17:40:10.766Z,5.77
2019-05-06T17:42:35.864Z,5.77
2019-05-06T17:45:04.998Z,6.07
2019-05-06T17:47:33.481Z,6.27
2019-05-06T17:50:02.822Z,5.90
2019-05-06T17:52:30.062Z,6.13
2019-05-06T17:54:58.434Z,6.00
2019-05-06T17:57:26.801Z,7.30
2019-05-06T17:59:55.135Z,7.00
2019-05-06T18:02:23.479Z,6.67
2019-05-06T18:04:53.228Z,6.80
2019-05-06T18:09:54.415Z,7.20
2019-05-06T18:12:23.346Z,6.70
2019-05-06T18:14:53.192Z,6.67
2019-05-06T18:17:19.488Z,7.07
2019-05-06T18:19:47.847Z,6.50
2019-05-06T18:22:16.193Z,6.13
2019-05-06T18:24:44.535Z,6.93
2019-05-06T18:27:13.855Z,6.80
2019-05-06T18:29:42.374Z,6.50
2019-05-06T18:34:44.812Z,7.80
2019-05-06T18:37:13.187Z,7.70
2019-05-06T18:39:42.696Z,7.47
2019-05-06T18:42:19.175Z,7.33
2019-05-06T18:44:42.073Z,7.23
2019-05-06T18:47:08.554Z,7.50
2019-05-06T18:49:36.953Z,7.27
2019-05-06T18:52:05.298Z,6.63
2019-05-06T18:54:34.054Z,7.73
2019-05-06T18:57:04.677Z,8.60
2019-05-06T18:59:32.411Z,8.57
2019-05-06T19:04:33.480Z,9.07
2019-05-06T19:07:10.670Z,8.30
2019-05-06T19:09:32.621Z,7.27
2019-05-06T19:11:59.450Z,8.27
2019-05-06T19:14:27.802Z,6.77
2019-05-06T19:19:34.218Z,8.35
2019-05-06T19:22:02.736Z,6.90
2019-05-06T19:24:30.190Z,7.30
2019-05-06T19:26:59.505Z,7.78
2019-05-06T19:29:27.843Z,8.70
2019-05-06T19:31:56.208Z,7.00
2019-05-06T19:34:24.549Z,8.50
2019-05-06T19:39:27.114Z,7.93
2019-05-06T19:44:54.178Z,7.70
2019-05-06T19:47:22.583Z,8.10
2019-05-06T19:49:53.002Z,7.07
2019-05-06T19:52:19.303Z,7.90
2019-05-06T19:54:47.648Z,7.80
2019-05-06T19:57:16.152Z,7.40
2019-05-06T19:59:44.397Z,8.20
2019-05-06T20:04:48.970Z,9.30
2019-05-06T20:07:37.160Z,8.90
2019-05-06T20:10:09.349Z,9.07
2019-05-06T20:12:37.702Z,9.17
2019-05-06T20:15:13.255Z,7.33
2019-05-06T20:17:39.966Z,7.60
2019-05-06T20:20:08.340Z,8.57
2019-05-06T20:22:36.816Z,8.32
2019-05-06T20:25:05.148Z,7.90
2019-05-06T20:27:33.506Z,7.47
2019-05-06T20:30:03.399Z,7.57
2019-05-06T20:32:32.173Z,7.65
2019-05-06T20:34:58.861Z,8.50
2019-05-06T20:37:27.266Z,7.40
2019-05-06T20:39:55.596Z,7.65
2019-05-06T20:42:23.921Z,7.07
2019-05-06T20:44:52.504Z,9.10
2019-05-06T20:47:20.665Z,7.90
2019-05-06T20:49:49.090Z,7.30
2019-05-06T20:52:17.474Z,7.00
2019-05-06T20:54:45.808Z,5.40
2019-05-06T20:57:14.152Z,6.00
2019-05-06T20:59:42.853Z,7.37
2019-05-06T21:02:12.524Z,6.13
2019-05-06T21:04:40.508Z,7.93
2019-05-06T21:07:08.874Z,8.40
2019-05-06T21:09:37.291Z,9.20
2019-05-06T21:12:05.692Z,7.70
2019-05-06T21:14:34.023Z,9.30
2019-05-06T21:17:02.685Z,10.73
2019-05-06T21:19:32.926Z,8.60
2019-05-06T21:24:36.063Z,8.35
2019-05-06T21:27:02.764Z,9.80
2019-05-06T21:29:32.341Z,7.90
2019-05-06T21:31:58.644Z,6.87
2019-05-06T21:34:27.002Z,6.60
2019-05-06T21:36:55.488Z,8.25
2019-05-06T21:39:23.847Z,7.33
2019-05-06T21:41:52.334Z,6.37
2019-05-06T21:44:22.641Z,6.80
2019-05-06T21:46:49.041Z,6.40
2019-05-06T21:49:17.379Z,6.20
2019-05-06T21:51:45.726Z,7.00
2019-05-06T21:54:15.058Z,7.13
2019-05-06T21:56:44.365Z,6.77
2019-05-06T21:59:13.037Z,6.70
2019-05-06T22:01:42.933Z,7.27
2019-05-06T22:04:09.421Z,6.43
2019-05-06T22:06:37.767Z,8.50
2019-05-06T22:09:07.080Z,6.70
2019-05-06T22:11:35.436Z,7.70
2019-05-06T22:14:03.769Z,6.83
2019-05-06T22:16:32.391Z,7.62
2019-05-06T22:19:02.566Z,7.23
2019-05-06T22:21:28.864Z,6.43
2019-05-06T22:23:58.992Z,7.80
2019-05-06T22:26:27.426Z,7.47
2019-05-06T22:28:55.757Z,7.75
2019-05-06T22:33:58.417Z,7.70
2019-05-06T22:36:26.750Z,6.60
2019-05-06T22:38:55.102Z,7.00
2019-05-06T22:41:25.498Z,7.95
2019-05-06T22:43:53.180Z,7.50
2019-05-06T22:46:20.180Z,6.87
2019-05-06T22:48:49.566Z,8.07
2019-05-06T22:51:17.906Z,7.90
2019-05-06T22:53:46.249Z,7.20
2019-05-06T22:56:14.591Z,7.30
2019-05-06T22:58:42.969Z,7.68
2019-05-06T23:04:09.301Z,6.80
2019-05-06T23:06:37.661Z,7.30
2019-05-06T23:09:06.025Z,6.93
2019-05-06T23:11:34.385Z,6.27
2019-05-06T23:14:02.909Z,8.40
2019-05-06T23:16:32.866Z,6.73
2019-05-06T23:21:34.758Z,7.18
2019-05-06T23:24:03.107Z,7.23
2019-05-06T23:26:31.452Z,7.13
2019-05-06T23:28:59.812Z,6.77
2019-05-06T23:34:04.916Z,7.62
2019-05-06T23:36:30.802Z,6.77
2019-05-06T23:39:16.935Z,7.50
2019-05-06T23:42:03.050Z,6.00
2019-05-06T23:44:49.274Z,6.93
2019-05-06T23:47:35.578Z,5.97
2019-05-06T23:50:22.977Z,6.43
2019-05-06T23:53:07.779Z,7.20
2019-05-06T23:55:53.946Z,8.13
2019-05-06T23:58:22.484Z,6.30
